createdAt,value
2019-01-20T00:01:30.588Z,7.80
2019-01-20T00:06:53.341Z,4.83
2019-01-20T00:12:16.993Z,9.50
2019-01-20T00:17:40.547Z,6.27
2019-01-20T00:23:03.928Z,7.97
2019-01-20T00:28:27.219Z,8.63
2019-01-20T00:33:51.032Z,7.07
2019-01-20T00:39:14.182Z,10.93
2019-01-20T00:44:37.238Z,8.50
2019-01-20T00:50:00.445Z,10.53
2019-01-20T00:55:23.490Z,9.27
2019-01-20T01:00:46.305Z,9.97
2019-01-20T01:06:09.578Z,11.70
2019-01-20T01:11:32.348Z,10.63
2019-01-20T01:16:54.862Z,10.17
2019-01-20T01:22:18.962Z,8.63
2019-01-20T01:27:42.568Z,11.03
2019-01-20T01:33:05.673Z,5.73
2019-01-20T01:38:29.729Z,7.67
2019-01-20T01:43:53.232Z,10.13
2019-01-20T01:49:15.933Z,6.80
2019-01-20T01:54:38.859Z,8.97
2019-01-20T02:00:01.853Z,6.77
2019-01-20T02:05:25.211Z,8.60
2019-01-20T02:10:48.007Z,8.83
2019-01-20T02:16:10.661Z,6.67
2019-01-20T02:21:33.617Z,10.13
2019-01-20T02:26:56.528Z,12.90
2019-01-20T02:32:19.601Z,7.80
2019-01-20T02:37:42.881Z,8.13
2019-01-20T02:43:05.809Z,11.27
2019-01-20T02:48:28.496Z,8.83
2019-01-20T02:53:50.982Z,11.93
2019-01-20T02:59:14.004Z,7.13
2019-01-20T03:04:36.593Z,12.00
2019-01-20T03:09:59.590Z,9.60
2019-01-20T03:15:22.469Z,9.20
2019-01-20T03:20:46.065Z,8.70
2019-01-20T03:26:09.157Z,10.40
2019-01-20T03:31:31.862Z,9.30
2019-01-20T03:36:54.659Z,13.67
2019-01-20T03:42:17.364Z,11.60
2019-01-20T03:47:40.461Z,7.40
2019-01-20T03:53:03.486Z,9.17
2019-01-20T03:58:27.100Z,11.27
2019-01-20T04:03:49.888Z,11.83
2019-01-20T04:09:12.773Z,9.93
2019-01-20T04:14:35.688Z,10.43
2019-01-20T04:19:59.553Z,10.30
2019-01-20T04:25:22.666Z,10.23
2019-01-20T04:30:45.445Z,11.40
2019-01-20T04:36:09.108Z,11.53
2019-01-20T04:41:31.937Z,11.57
2019-01-20T04:46:55.114Z,13.10
2019-01-20T04:52:17.740Z,6.87
2019-01-20T04:57:41.536Z,9.10
2019-01-20T05:03:05.063Z,10.90
2019-01-20T05:08:27.752Z,8.27
2019-01-20T05:13:50.649Z,8.40
2019-01-20T05:19:13.713Z,9.63
2019-01-20T05:24:36.934Z,10.63
2019-01-20T05:30:00.269Z,8.40
2019-01-20T05:35:23.201Z,7.70
2019-01-20T05:40:45.788Z,10.17
2019-01-20T05:46:08.305Z,11.27
2019-01-20T05:51:31.683Z,9.80
2019-01-20T05:56:54.595Z,9.77
2019-01-20T06:02:18.058Z,8.83
2019-01-20T06:07:41.442Z,11.17
2019-01-20T06:13:05.324Z,11.13
2019-01-20T06:18:28.629Z,8.73
2019-01-20T06:23:52.105Z,8.27
2019-01-20T06:29:15.182Z,7.53
2019-01-20T06:34:38.077Z,10.40
2019-01-20T06:40:01.278Z,10.03
2019-01-20T06:45:24.388Z,11.03
2019-01-20T06:50:47.374Z,8.77
2019-01-20T06:56:10.849Z,8.17
2019-01-20T07:01:34.152Z,10.63
2019-01-20T07:06:56.906Z,8.60
2019-01-20T07:12:20.084Z,7.37
2019-01-20T07:17:43.143Z,7.37
2019-01-20T07:23:06.161Z,6.10
2019-01-20T07:28:29.625Z,7.90
2019-01-20T07:33:52.703Z,6.27
2019-01-20T07:39:15.793Z,7.83
2019-01-20T07:44:39.131Z,8.67
2019-01-20T07:50:02.631Z,7.83
2019-01-20T07:55:25.096Z,6.53
2019-01-20T08:00:48.374Z,7.70
2019-01-20T08:06:11.417Z,10.47
2019-01-20T08:11:34.293Z,10.23
2019-01-20T08:16:57.279Z,10.10
2019-01-20T08:22:20.196Z,11.20
2019-01-20T08:27:42.991Z,10.57
2019-01-20T08:33:07.690Z,9.07
2019-01-20T08:38:30.568Z,9.13
2019-01-20T08:43:53.992Z,7.87
2019-01-20T08:49:16.853Z,8.10
2019-01-20T08:54:39.954Z,8.47
2019-01-20T09:00:02.854Z,10.73
2019-01-20T09:05:25.968Z,10.57
2019-01-20T09:10:31.410Z,8.47
2019-01-20T09:15:36.833Z,8.67
2019-01-20T09:20:42.128Z,13.60
2019-01-20T09:25:47.369Z,10.80
2019-01-20T09:30:52.256Z,8.37
2019-01-20T09:35:57.125Z,8.17
2019-01-20T09:41:02.596Z,9.60
2019-01-20T09:46:07.487Z,5.77
2019-01-20T09:51:12.383Z,7.27
2019-01-20T09:56:17.279Z,7.70
2019-01-20T10:01:22.147Z,9.27
2019-01-20T10:06:27.025Z,10.60
2019-01-20T10:11:32.164Z,9.13
2019-01-20T10:16:37.108Z,6.10
2019-01-20T10:21:42.150Z,9.73
2019-01-20T10:26:47.311Z,11.03
2019-01-20T10:31:52.537Z,11.77
2019-01-20T10:36:59.015Z,9.67
2019-01-20T10:42:04.237Z,9.23
2019-01-20T10:47:09.449Z,7.63
2019-01-20T10:52:14.489Z,9.07
2019-01-20T10:57:19.737Z,10.47
2019-01-20T11:02:26.373Z,11.93
2019-01-20T11:07:33.025Z,13.57
2019-01-20T11:12:44.391Z,10.73
2019-01-20T11:17:49.653Z,12.47
2019-01-20T11:22:56.567Z,13.53
2019-01-20T11:28:02.191Z,14.47
2019-01-20T11:33:09.112Z,11.83
2019-01-20T11:38:14.495Z,10.23
2019-01-20T11:43:20.458Z,13.17
2019-01-20T11:48:25.776Z,13.53
2019-01-20T11:53:31.314Z,11.37
2019-01-20T11:58:39.281Z,15.10
2019-01-20T12:03:44.212Z,15.40
2019-01-20T12:08:49.572Z,18.43
2019-01-20T12:13:58.161Z,13.90
2019-01-20T12:19:03.251Z,18.33
2019-01-20T12:24:08.330Z,16.73
2019-01-20T12:29:14.003Z,14.70
2019-01-20T12:34:19.019Z,18.43
2019-01-20T12:39:24.359Z,16.00
2019-01-20T12:44:31.485Z,12.63
2019-01-20T12:49:37.831Z,12.63
2019-01-20T12:54:43.507Z,16.63
2019-01-20T12:59:51.197Z,16.87
2019-01-20T13:04:56.575Z,16.60
2019-01-20T13:10:03.173Z,13.80
2019-01-20T13:15:13.701Z,9.77
2019-01-20T13:20:22.907Z,12.97
2019-01-20T13:25:30.783Z,13.37
2019-01-20T13:30:36.206Z,17.37
2019-01-20T13:35:42.717Z,13.27
2019-01-20T13:40:56.673Z,16.67
2019-01-20T13:46:02.426Z,15.80
2019-01-20T13:51:08.071Z,17.40
2019-01-20T13:56:14.065Z,13.67
2019-01-20T14:01:23.327Z,14.43
2019-01-20T14:06:29.643Z,14.87
2019-01-20T14:11:35.629Z,12.93
2019-01-20T14:16:41.981Z,14.27
2019-01-20T14:21:47.531Z,16.57
2019-01-20T14:26:52.795Z,15.10
2019-01-20T14:31:59.201Z,16.17
2019-01-20T14:37:04.558Z,15.73
2019-01-20T14:42:09.983Z,14.30
2019-01-20T14:47:15.401Z,18.20
2019-01-20T14:52:21.403Z,14.10
2019-01-20T14:57:29.128Z,14.70
2019-01-20T15:02:34.288Z,14.13
2019-01-20T15:07:39.333Z,18.10
2019-01-20T15:12:47.960Z,16.67
2019-01-20T15:17:53.266Z,15.60
2019-01-20T15:22:58.259Z,14.23
2019-01-20T15:28:06.024Z,15.53
2019-01-20T15:33:11.022Z,14.37
2019-01-20T15:38:16.332Z,17.23
2019-01-20T15:43:23.626Z,12.93
2019-01-20T15:48:28.676Z,13.10
2019-01-20T15:53:35.464Z,12.30
2019-01-20T15:58:43.969Z,11.13
2019-01-20T16:03:50.154Z,12.70
2019-01-20T16:08:57.204Z,12.27
2019-01-20T16:14:02.421Z,11.80
2019-01-20T16:19:07.662Z,12.93
2019-01-20T16:24:12.912Z,13.63
2019-01-20T16:29:18.437Z,11.00
2019-01-20T16:34:23.787Z,12.50
2019-01-20T16:39:28.856Z,11.97
2019-01-20T16:44:34.425Z,10.83
2019-01-20T16:49:39.807Z,13.60
2019-01-20T16:54:47.181Z,15.90
2019-01-20T16:59:52.418Z,16.77
2019-01-20T17:04:58.578Z,13.80
2019-01-20T17:10:03.817Z,13.27
2019-01-20T17:15:10.842Z,12.67
2019-01-20T17:20:16.400Z,12.40
2019-01-20T17:25:24.972Z,14.13
2019-01-20T17:30:32.569Z,12.13
2019-01-20T17:35:37.882Z,10.90
2019-01-20T17:40:44.304Z,11.37
2019-01-20T17:45:50.035Z,11.53
2019-01-20T17:50:55.090Z,13.90
2019-01-20T17:56:00.686Z,15.77
2019-01-20T18:01:07.146Z,13.00
2019-01-20T18:06:12.386Z,16.57
2019-01-20T18:11:17.793Z,36.00
2019-01-20T18:16:23.118Z,20.83
2019-01-20T18:21:32.303Z,20.07
2019-01-20T18:26:37.940Z,18.90
2019-01-20T18:31:43.099Z,19.53
2019-01-20T18:36:48.696Z,20.17
2019-01-20T18:42:11.575Z,20.93
2019-01-20T18:47:17.766Z,18.90
2019-01-20T18:52:29.199Z,25.93
2019-01-20T18:57:34.860Z,27.50
2019-01-20T19:02:41.045Z,22.93
2019-01-20T19:07:46.429Z,25.10
2019-01-20T19:12:56.447Z,24.27
2019-01-20T19:18:01.812Z,24.60
2019-01-20T19:23:07.669Z,25.43
2019-01-20T19:28:12.994Z,20.17
2019-01-20T19:33:19.163Z,21.33
2019-01-20T19:38:24.715Z,18.80
2019-01-20T19:43:30.300Z,20.60
2019-01-20T19:48:36.439Z,23.73
2019-01-20T19:53:44.626Z,20.73
2019-01-20T19:58:49.984Z,20.80
2019-01-20T20:03:58.328Z,18.97
2019-01-20T20:09:04.469Z,21.67
2019-01-20T20:14:09.994Z,19.33
2019-01-20T20:19:18.281Z,19.57
2019-01-20T20:24:25.590Z,24.17
2019-01-20T20:29:31.419Z,19.60
2019-01-20T20:34:36.736Z,23.13
2019-01-20T20:39:43.722Z,28.87
2019-01-20T20:44:50.717Z,32.57
2019-01-20T20:49:56.373Z,38.47
2019-01-20T20:55:09.156Z,31.53
2019-01-20T21:00:46.489Z,28.70
2019-01-20T21:05:52.437Z,27.63
2019-01-20T21:10:57.963Z,26.47
2019-01-20T21:16:03.457Z,24.23
2019-01-20T21:21:10.068Z,24.47
2019-01-20T21:26:15.788Z,28.37
2019-01-20T21:31:21.654Z,31.17
2019-01-20T21:36:26.690Z,27.63
2019-01-20T21:41:32.015Z,28.73
2019-01-20T21:46:37.641Z,25.27
2019-01-20T21:51:43.479Z,27.13
2019-01-20T21:56:48.996Z,30.43
2019-01-20T22:01:53.970Z,31.30
2019-01-20T22:06:59.381Z,31.57
2019-01-20T22:12:05.126Z,32.13
2019-01-20T22:17:10.166Z,28.63
2019-01-20T22:22:15.406Z,26.53
2019-01-20T22:27:20.711Z,25.20
2019-01-20T22:32:26.330Z,26.57
2019-01-20T22:37:31.694Z,27.53
2019-01-20T22:42:36.905Z,22.47
2019-01-20T22:47:42.297Z,27.63
2019-01-20T22:52:47.940Z,26.47
2019-01-20T22:57:53.686Z,27.27
2019-01-20T23:02:59.240Z,27.93
2019-01-20T23:08:04.662Z,27.23
2019-01-20T23:13:09.822Z,23.73
2019-01-20T23:18:14.856Z,26.83
2019-01-20T23:23:20.339Z,22.67
2019-01-20T23:28:25.737Z,27.23
2019-01-20T23:33:30.832Z,24.57
2019-01-20T23:38:36.632Z,30.83
2019-01-20T23:43:41.766Z,25.73
2019-01-20T23:48:46.925Z,22.13
2019-01-20T23:53:52.323Z,23.43
2019-01-20T23:58:57.481Z,26.53
